Time;durP1;ratioP1;P1;durP2;ratioP2;P2;SDS_P1;SDS_P2;PMS_P1;PMS_P2;Temp;Humidity;BMP_temperature;BMP_pressure;BME280_temperature;BME280_humidity;BME280_pressure;Samples;Min_cycle;Max_cycle;Signal;HPM_P1;HPM_P2
2021/12/15 00:01:00;;;;;;;;;;;9.50;89.80;;;;;;5037288;28;19945;-81
2021/12/15 00:03:26;;;;;;;;;;;9.40;89.90;;;;;;5037055;28;19987;-81
2021/12/15 00:05:52;;;;;;;;;;;9.30;89.90;;;;;;5039601;28;19909;-81
2021/12/15 00:08:17;;;;;;;;;;;9.30;90.10;;;;;;5035340;28;19923;-81
2021/12/15 00:10:44;;;;;;;;;;;9.30;90.10;;;;;;5033073;28;19913;-81
2021/12/15 00:13:11;;;;;;;;;;;9.30;90.00;;;;;;5027745;28;20008;-81
2021/12/15 00:15:37;;;;;;;;;;;9.30;90.10;;;;;;5028796;28;19924;-81
2021/12/15 00:18:03;;;;;;;;;;;9.40;90.00;;;;;;5038819;28;19917;-80
2021/12/15 00:20:28;;;;;;;;;;;9.40;90.10;;;;;;5021527;28;19909;-81
2021/12/15 00:22:54;;;;;;;;;;;9.40;89.90;;;;;;5026285;28;19956;-82
2021/12/15 00:25:21;;;;;;;;;;;9.50;90.00;;;;;;5042293;28;19921;-81
2021/12/15 00:27:47;;;;;;;;;;;9.40;89.70;;;;;;5041723;28;20007;-81
2021/12/15 00:30:12;;;;;;;;;;;9.30;89.80;;;;;;5027129;28;19927;-82
2021/12/15 00:32:38;;;;;;;;;;;9.30;89.90;;;;;;5027589;28;19913;-81
2021/12/15 00:35:05;;;;;;;;;;;9.20;89.90;;;;;;5038725;28;19960;-81
2021/12/15 00:37:30;;;;;;;;;;;9.20;90.00;;;;;;5043788;28;20003;-82
2021/12/15 00:39:56;;;;;;;;;;;9.30;90.00;;;;;;5016780;28;20018;-81
2021/12/15 00:42:21;;;;;;;;;;;9.30;90.00;;;;;;5035450;28;20258;-82
2021/12/15 00:44:47;;;;;;;;;;;9.40;89.80;;;;;;5037049;28;20392;-83
2021/12/15 00:47:13;;;;;;;;;;;9.30;89.80;;;;;;5024742;28;19967;-83
2021/12/15 00:49:39;;;;;;;;;;;9.40;89.80;;;;;;5035371;28;19967;-83
2021/12/15 00:52:06;;;;;;;;;;;9.30;89.70;;;;;;5037221;28;19909;-83
2021/12/15 00:54:32;;;;;;;;;;;9.40;89.70;;;;;;5034587;28;20102;-83
2021/12/15 00:56:57;;;;;;;;;;;9.50;89.60;;;;;;5034602;28;19916;-82
2021/12/15 00:59:23;;;;;;;;;;;9.50;89.30;;;;;;5017583;28;19913;-82
2021/12/15 01:01:50;;;;;;;;;;;9.50;89.30;;;;;;5035449;28;20401;-82
2021/12/15 01:04:16;;;;;;;;;;;9.50;89.20;;;;;;5034799;28;19919;-81
2021/12/15 01:06:44;;;;;;;;;;;9.50;89.20;;;;;;5059918;23;19993;-86
2021/12/15 01:09:16;;;;;;;;;;;9.50;89.10;;;;;;5069535;28;19924;-84
2021/12/15 01:14:33;;;;;;;;;;;9.60;88.30;;;;;;5085470;28;19917;-83
2021/12/15 01:22:15;;;;;;;;;;;9.60;88.40;;;;;;5085102;28;19916;-83
2021/12/15 01:24:41;;;;;;;;;;;9.60;88.20;;;;;;5074977;28;19923;-83
2021/12/15 01:27:06;;;;;;;;;;;9.60;88.00;;;;;;5056301;28;19913;-83
2021/12/15 01:29:32;;;;;;;;;;;9.60;88.10;;;;;;5053590;28;19909;-83
2021/12/15 01:31:57;;;;;;;;;;;9.60;88.00;;;;;;5061143;28;19917;-83
2021/12/15 01:34:23;;;;;;;;;;;9.60;88.20;;;;;;5068803;28;19913;-83
2021/12/15 01:36:48;;;;;;;;;;;9.50;88.20;;;;;;5061379;28;19958;-83
2021/12/15 01:39:14;;;;;;;;;;;9.50;88.20;;;;;;5057264;28;19963;-83
2021/12/15 01:41:39;;;;;;;;;;;9.50;88.20;;;;;;5051719;28;20375;-83
2021/12/15 01:47:02;;;;;;;;;;;9.40;88.40;;;;;;5053962;28;19913;-83
2021/12/15 01:49:37;;;;;;;;;;;9.50;88.30;;;;;;5056418;28;20011;-83
2021/12/15 01:52:05;;;;;;;;;;;9.50;88.40;;;;;;5070867;28;19923;-83
2021/12/15 01:54:31;;;;;;;;;;;9.60;88.30;;;;;;5055068;28;19921;-84
2021/12/15 01:56:57;;;;;;;;;;;9.50;88.20;;;;;;5060015;28;19913;-84
2021/12/15 01:59:24;;;;;;;;;;;9.60;88.00;;;;;;5087641;28;19959;-84
2021/12/15 02:01:50;;;;;;;;;;;9.60;87.90;;;;;;5072862;28;19962;-84
2021/12/15 02:04:18;;;;;;;;;;;9.50;88.00;;;;;;5055283;28;19917;-85
2021/12/15 02:06:44;;;;;;;;;;;9.60;88.00;;;;;;5049945;28;20055;-85
2021/12/15 02:09:17;;;;;;;;;;;9.60;87.60;;;;;;5055476;28;20367;-84
2021/12/15 02:11:43;;;;;;;;;;;9.60;87.70;;;;;;5044335;28;20394;-84
2021/12/15 02:14:11;;;;;;;;;;;9.50;87.70;;;;;;5066885;28;19916;-85
2021/12/15 02:16:36;;;;;;;;;;;9.50;87.60;;;;;;5070051;28;20011;-84
2021/12/15 02:19:02;;;;;;;;;;;9.50;87.70;;;;;;5063183;28;19956;-85
2021/12/15 02:21:28;;;;;;;;;;;9.50;87.90;;;;;;5063598;28;19913;-84
2021/12/15 02:23:57;;;;;;;;;;;9.50;87.70;;;;;;5072847;28;19913;-84
2021/12/15 02:26:36;;;;;;;;;;;9.40;87.70;;;;;;5065173;28;19934;-84
2021/12/15 02:29:03;;;;;;;;;;;9.50;87.90;;;;;;5063743;28;20301;-84
2021/12/15 02:31:51;;;;;;;;;;;9.50;87.90;;;;;;5064891;28;20250;-84
2021/12/15 02:34:43;;;;;;;;;;;9.50;87.70;;;;;;5080525;28;19908;-84
2021/12/15 02:37:17;;;;;;;;;;;9.50;87.60;;;;;;5064850;28;19920;-85
2021/12/15 02:39:44;;;;;;;;;;;9.50;87.50;;;;;;5051532;28;19936;-84
2021/12/15 02:42:10;;;;;;;;;;;9.60;87.60;;;;;;5072146;28;19919;-83
2021/12/15 02:44:36;;;;;;;;;;;9.50;87.60;;;;;;5080258;28;19976;-84
2021/12/15 02:47:02;;;;;;;;;;;9.50;87.60;;;;;;5065211;28;19942;-84
2021/12/15 02:49:28;;;;;;;;;;;9.60;87.60;;;;;;5064886;28;19908;-84
2021/12/15 02:51:55;;;;;;;;;;;9.50;87.60;;;;;;5070581;28;19991;-84
2021/12/15 02:54:22;;;;;;;;;;;9.50;87.80;;;;;;5072330;28;20362;-84
2021/12/15 02:56:50;;;;;;;;;;;9.50;88.00;;;;;;5053969;28;19955;-83
2021/12/15 02:59:19;;;;;;;;;;;9.50;87.90;;;;;;5051222;28;20307;-84
2021/12/15 03:01:55;;;;;;;;;;;9.50;87.90;;;;;;5038270;28;19921;-83
2021/12/15 03:06:57;;;;;;;;;;;9.40;88.00;;;;;;5039965;28;19921;-84
2021/12/15 03:15:29;;;;;;;;;;;9.40;88.20;;;;;;5037429;28;19924;-83
2021/12/15 03:18:00;;;;;;;;;;;9.40;88.10;;;;;;5054461;28;20434;-84
2021/12/15 03:20:27;;;;;;;;;;;9.50;88.10;;;;;;5055799;28;19955;-84
2021/12/15 03:22:53;;;;;;;;;;;9.50;87.80;;;;;;5074624;28;19969;-84
2021/12/15 03:25:19;;;;;;;;;;;9.50;87.80;;;;;;5067678;28;20007;-84
2021/12/15 03:33:34;;;;;;;;;;;9.30;88.50;;;;;;5083395;28;19931;-83
2021/12/15 03:36:10;;;;;;;;;;;9.40;88.60;;;;;;5060619;28;20301;-84
2021/12/15 03:38:35;;;;;;;;;;;9.40;88.60;;;;;;5060142;28;20004;-84
2021/12/15 03:41:03;;;;;;;;;;;9.50;88.50;;;;;;5058980;28;19948;-84
2021/12/15 03:43:29;;;;;;;;;;;9.50;88.50;;;;;;5054197;28;20019;-84
2021/12/15 03:45:56;;;;;;;;;;;9.50;88.30;;;;;;5066360;28;19912;-84
2021/12/15 03:48:24;;;;;;;;;;;9.60;88.60;;;;;;5070347;28;19916;-84
2021/12/15 03:50:51;;;;;;;;;;;9.50;88.40;;;;;;5061330;28;20359;-84
2021/12/15 03:53:18;;;;;;;;;;;9.60;88.40;;;;;;5055466;28;19908;-84
2021/12/15 03:55:44;;;;;;;;;;;9.50;88.60;;;;;;5053216;28;20332;-84
2021/12/15 03:58:12;;;;;;;;;;;9.60;88.30;;;;;;5035956;28;19910;-84
2021/12/15 04:00:40;;;;;;;;;;;9.60;88.30;;;;;;5058760;28;19992;-84
2021/12/15 04:03:05;;;;;;;;;;;9.60;88.40;;;;;;5060852;28;19913;-83
2021/12/15 04:05:31;;;;;;;;;;;9.60;88.50;;;;;;5080967;28;20013;-83
2021/12/15 04:07:57;;;;;;;;;;;9.60;88.20;;;;;;5056454;28;19950;-84
2021/12/15 04:10:25;;;;;;;;;;;9.60;88.30;;;;;;5052806;28;20012;-83
2021/12/15 04:12:51;;;;;;;;;;;9.50;88.40;;;;;;5055417;28;19913;-84
2021/12/15 04:17:47;;;;;;;;;;;9.50;88.70;;;;;;5055768;28;19913;-84
2021/12/15 04:20:13;;;;;;;;;;;9.50;88.30;;;;;;5060461;28;19981;-84
2021/12/15 04:22:41;;;;;;;;;;;9.50;88.60;;;;;;5059114;28;19917;-84
2021/12/15 04:25:08;;;;;;;;;;;9.60;88.60;;;;;;5061484;28;20383;-84
2021/12/15 04:27:33;;;;;;;;;;;9.70;88.20;;;;;;5074639;28;19913;-84
2021/12/15 04:29:59;;;;;;;;;;;9.60;88.10;;;;;;5061811;28;19981;-84
2021/12/15 04:32:45;;;;;;;;;;;9.60;88.10;;;;;;5056946;28;19958;-85
2021/12/15 04:35:11;;;;;;;;;;;9.60;88.10;;;;;;5070125;28;20179;-85
2021/12/15 04:37:36;;;;;;;;;;;9.60;88.40;;;;;;5077283;28;19974;-85
2021/12/15 04:40:04;;;;;;;;;;;9.50;88.60;;;;;;5046657;28;19992;-85
2021/12/15 04:42:29;;;;;;;;;;;9.50;88.90;;;;;;5080336;28;19990;-84
2021/12/15 04:44:56;;;;;;;;;;;9.60;88.90;;;;;;5082937;28;19931;-84
2021/12/15 04:47:23;;;;;;;;;;;9.50;89.00;;;;;;5065756;28;19950;-84
2021/12/15 04:49:50;;;;;;;;;;;9.50;89.00;;;;;;5066701;28;19939;-85
2021/12/15 04:52:17;;;;;;;;;;;9.50;89.00;;;;;;5061403;28;19919;-85
2021/12/15 04:54:43;;;;;;;;;;;9.50;89.00;;;;;;5070909;28;20007;-85
2021/12/15 04:57:09;;;;;;;;;;;9.50;89.00;;;;;;5078063;28;19960;-85
2021/12/15 04:59:36;;;;;;;;;;;9.30;89.20;;;;;;5062247;28;20343;-84
2021/12/15 05:02:02;;;;;;;;;;;9.40;89.20;;;;;;5059713;28;19913;-85
2021/12/15 05:04:27;;;;;;;;;;;9.40;89.20;;;;;;5056227;28;19971;-85
2021/12/15 05:06:53;;;;;;;;;;;9.40;89.20;;;;;;5062937;28;19913;-85
2021/12/15 05:09:19;;;;;;;;;;;9.50;89.20;;;;;;5059530;28;19909;-85
2021/12/15 05:11:47;;;;;;;;;;;9.40;89.30;;;;;;5075115;28;19923;-85
2021/12/15 05:14:13;;;;;;;;;;;9.40;89.40;;;;;;5077030;28;19940;-85
2021/12/15 05:16:38;;;;;;;;;;;9.40;89.20;;;;;;5062173;28;19935;-85
2021/12/15 05:19:04;;;;;;;;;;;9.40;89.20;;;;;;5056203;28;19920;-84
2021/12/15 05:21:30;;;;;;;;;;;9.40;89.30;;;;;;5054550;28;19952;-83
2021/12/15 05:24:00;;;;;;;;;;;9.50;89.30;;;;;;5061785;28;19916;-83
2021/12/15 05:26:27;;;;;;;;;;;9.50;89.20;;;;;;5061941;28;19917;-82
2021/12/15 05:28:52;;;;;;;;;;;9.60;89.10;;;;;;5073889;28;19920;-83
2021/12/15 05:31:18;;;;;;;;;;;9.50;89.20;;;;;;5052632;28;19913;-85
2021/12/15 05:33:44;;;;;;;;;;;9.50;89.20;;;;;;5036552;28;19956;-85
2021/12/15 05:36:09;;;;;;;;;;;9.50;89.20;;;;;;5054711;28;20317;-84
2021/12/15 05:38:35;;;;;;;;;;;9.40;89.20;;;;;;5051340;28;19916;-84
2021/12/15 05:41:00;;;;;;;;;;;9.40;89.20;;;;;;5064726;28;19956;-83
2021/12/15 05:43:26;;;;;;;;;;;9.50;89.20;;;;;;5045909;28;19920;-83
2021/12/15 05:45:52;;;;;;;;;;;9.40;89.30;;;;;;5052383;28;19908;-84
2021/12/15 05:48:18;;;;;;;;;;;9.50;89.30;;;;;;5051589;28;20026;-84
2021/12/15 05:50:44;;;;;;;;;;;9.50;89.40;;;;;;5050806;28;19920;-82
2021/12/15 05:53:10;;;;;;;;;;;9.50;89.60;;;;;;5057369;28;19917;-82
2021/12/15 05:55:36;;;;;;;;;;;9.50;89.50;;;;;;5059247;28;19952;-84
2021/12/15 05:58:02;;;;;;;;;;;9.50;89.60;;;;;;5057219;28;20275;-83
2021/12/15 06:00:31;;;;;;;;;;;9.50;89.60;;;;;;5044353;28;19977;-84
2021/12/15 06:02:57;;;;;;;;;;;9.40;89.70;;;;;;5050928;28;19924;-84
2021/12/15 06:05:23;;;;;;;;;;;9.40;89.90;;;;;;5061403;28;19920;-84
2021/12/15 06:07:48;;;;;;;;;;;9.50;90.10;;;;;;5060910;28;20287;-84
2021/12/15 06:10:15;;;;;;;;;;;9.50;89.80;;;;;;5051554;28;19913;-83
2021/12/15 06:12:43;;;;;;;;;;;9.50;89.90;;;;;;5063561;28;20364;-85
2021/12/15 06:15:08;;;;;;;;;;;9.40;90.00;;;;;;5060834;28;19924;-85
2021/12/15 06:17:34;;;;;;;;;;;9.50;90.10;;;;;;5051898;28;20406;-86
2021/12/15 06:20:00;;;;;;;;;;;9.50;89.60;;;;;;5067185;28;20589;-86
2021/12/15 06:22:27;;;;;;;;;;;9.50;89.60;;;;;;5053587;28;19931;-85
2021/12/15 06:24:53;;;;;;;;;;;9.50;89.80;;;;;;5061449;28;19919;-85
2021/12/15 06:27:20;;;;;;;;;;;9.40;89.80;;;;;;5059049;28;19920;-87
2021/12/15 06:29:49;;;;;;;;;;;9.40;90.00;;;;;;5049417;28;19940;-85
2021/12/15 06:32:15;;;;;;;;;;;9.50;89.70;;;;;;5052373;28;19999;-88
2021/12/15 06:34:41;;;;;;;;;;;9.40;90.00;;;;;;5054710;28;19932;-86
2021/12/15 06:37:08;;;;;;;;;;;9.30;90.30;;;;;;5080677;28;19917;-87
2021/12/15 06:39:33;;;;;;;;;;;9.30;90.50;;;;;;5081208;28;19936;-87
2021/12/15 06:41:59;;;;;;;;;;;9.30;90.70;;;;;;5076451;28;19913;-87
2021/12/15 06:44:25;;;;;;;;;;;9.30;90.70;;;;;;5060979;28;20235;-86
2021/12/15 06:47:19;;;;;;;;;;;9.40;90.50;;;;;;5060176;28;19956;-87
2021/12/15 07:00:27;;;;;;;;;;;9.30;91.00;;;;;;5044555;28;19924;-86
2021/12/15 07:02:53;;;;;;;;;;;9.30;91.20;;;;;;5052455;28;19917;-87
2021/12/15 07:05:19;;;;;;;;;;;9.40;90.80;;;;;;5049344;28;19956;-87
2021/12/15 07:07:46;;;;;;;;;;;9.40;90.80;;;;;;5067134;23;19939;-80
2021/12/15 07:10:13;;;;;;;;;;;9.40;90.80;;;;;;5061930;28;20381;-80
2021/12/15 07:12:38;;;;;;;;;;;9.40;90.60;;;;;;5051755;28;19920;-80
2021/12/15 07:15:04;;;;;;;;;;;9.30;90.80;;;;;;5058616;28;19913;-80
2021/12/15 07:17:30;;;;;;;;;;;9.40;90.90;;;;;;5059683;28;20144;-80
2021/12/15 07:22:43;;;;;;;;;;;9.30;90.90;;;;;;5055335;28;19924;-81
2021/12/15 07:25:10;;;;;;;;;;;9.40;91.10;;;;;;5050067;28;19968;-80
2021/12/15 07:27:35;;;;;;;;;;;9.40;91.10;;;;;;5050840;28;19913;-81
2021/12/15 07:30:01;;;;;;;;;;;9.40;91.10;;;;;;5061251;28;19916;-81
2021/12/15 07:32:27;;;;;;;;;;;9.50;90.80;;;;;;5064035;28;19916;-80
2021/12/15 07:34:53;;;;;;;;;;;9.50;90.90;;;;;;5068459;28;19944;-81
2021/12/15 07:37:18;;;;;;;;;;;9.50;90.80;;;;;;5054601;28;19982;-82
2021/12/15 07:39:54;;;;;;;;;;;9.40;90.80;;;;;;5037712;28;20019;-83
2021/12/15 07:42:29;;;;;;;;;;;9.50;91.00;;;;;;5053462;28;19917;-82
2021/12/15 07:44:54;;;;;;;;;;;9.40;90.90;;;;;;5050959;28;19916;-82
2021/12/15 07:47:20;;;;;;;;;;;9.40;90.80;;;;;;5048400;28;19916;-82
2021/12/15 07:49:45;;;;;;;;;;;9.40;91.00;;;;;;5051602;28;19992;-81
2021/12/15 07:52:11;;;;;;;;;;;9.40;91.10;;;;;;5058713;28;20276;-82
2021/12/15 07:54:37;;;;;;;;;;;9.40;90.80;;;;;;5049344;28;19913;-83
2021/12/15 07:57:04;;;;;;;;;;;9.40;91.20;;;;;;5064101;28;19913;-81
2021/12/15 07:59:30;;;;;;;;;;;9.50;90.90;;;;;;5047252;28;19917;-82
2021/12/15 08:01:55;;;;;;;;;;;9.50;90.80;;;;;;5049212;28;19924;-82
2021/12/15 08:04:21;;;;;;;;;;;9.60;90.40;;;;;;5050957;28;19921;-83
2021/12/15 08:06:46;;;;;;;;;;;9.50;90.70;;;;;;5055006;28;20314;-83
2021/12/15 08:09:12;;;;;;;;;;;9.50;90.80;;;;;;5047062;28;19991;-83
2021/12/15 08:11:38;;;;;;;;;;;9.50;90.80;;;;;;5059240;28;19912;-83
2021/12/15 08:14:04;;;;;;;;;;;9.50;90.80;;;;;;5057751;28;19959;-81
2021/12/15 08:16:29;;;;;;;;;;;9.40;90.80;;;;;;5054475;28;19913;-82
2021/12/15 08:18:55;;;;;;;;;;;9.40;90.90;;;;;;5048991;28;19914;-81
2021/12/15 08:21:20;;;;;;;;;;;9.40;90.90;;;;;;5049909;28;19925;-81
2021/12/15 08:23:46;;;;;;;;;;;9.30;91.20;;;;;;5047771;28;19917;-82
2021/12/15 08:26:11;;;;;;;;;;;9.40;91.10;;;;;;5054522;28;19982;-82
2021/12/15 08:28:37;;;;;;;;;;;9.40;91.10;;;;;;5045213;28;19999;-81
2021/12/15 08:31:03;;;;;;;;;;;9.40;91.10;;;;;;5047348;28;20011;-79
2021/12/15 08:33:29;;;;;;;;;;;9.40;91.30;;;;;;5037299;28;19960;-81
2021/12/15 08:36:01;;;;;;;;;;;9.40;91.20;;;;;;5052183;28;19978;-80
2021/12/15 08:38:27;;;;;;;;;;;9.40;91.20;;;;;;5046182;28;19964;-80
2021/12/15 08:40:53;;;;;;;;;;;9.50;91.30;;;;;;5058213;28;20215;-80
2021/12/15 08:43:19;;;;;;;;;;;9.50;90.90;;;;;;5052007;28;19973;-82
2021/12/15 08:45:50;;;;;;;;;;;9.50;90.70;;;;;;5052961;28;19916;-81
2021/12/15 08:48:16;;;;;;;;;;;9.50;90.90;;;;;;5051393;28;19913;-81
2021/12/15 08:50:42;;;;;;;;;;;9.50;91.20;;;;;;5041717;28;19913;-81
2021/12/15 08:53:10;;;;;;;;;;;9.50;91.10;;;;;;5046096;28;19928;-80
2021/12/15 08:55:37;;;;;;;;;;;9.60;91.10;;;;;;5050639;28;19924;-81
2021/12/15 08:58:05;;;;;;;;;;;9.60;90.90;;;;;;5051600;28;19963;-81
2021/12/15 09:00:30;;;;;;;;;;;9.60;90.50;;;;;;5053998;28;19913;-81
2021/12/15 09:02:56;;;;;;;;;;;9.50;90.50;;;;;;5058557;28;19921;-81
2021/12/15 09:05:22;;;;;;;;;;;9.60;90.40;;;;;;5067311;28;19980;-81
2021/12/15 09:07:49;;;;;;;;;;;9.60;90.60;;;;;;5069751;28;19969;-81
2021/12/15 09:10:15;;;;;;;;;;;9.60;90.50;;;;;;5058767;28;19901;-81
2021/12/15 09:12:41;;;;;;;;;;;9.70;90.30;;;;;;5056628;28;19934;-84
2021/12/15 09:15:07;;;;;;;;;;;9.60;90.40;;;;;;5048359;28;20350;-80
2021/12/15 09:17:33;;;;;;;;;;;9.70;90.20;;;;;;5048252;28;19993;-79
2021/12/15 09:19:59;;;;;;;;;;;9.70;90.10;;;;;;5047462;28;19920;-80
2021/12/15 09:22:24;;;;;;;;;;;9.70;90.10;;;;;;5046378;28;19924;-81
2021/12/15 09:24:50;;;;;;;;;;;9.70;90.30;;;;;;5042314;28;19921;-81
2021/12/15 09:27:15;;;;;;;;;;;9.60;90.20;;;;;;5046099;28;19966;-81
2021/12/15 09:29:41;;;;;;;;;;;9.70;90.30;;;;;;5054736;28;19920;-81
2021/12/15 09:32:06;;;;;;;;;;;9.70;90.20;;;;;;5047128;28;19923;-81
2021/12/15 09:34:32;;;;;;;;;;;9.70;90.00;;;;;;5057098;28;20432;-81
2021/12/15 09:36:58;;;;;;;;;;;9.80;90.10;;;;;;5050818;28;19913;-81
2021/12/15 09:39:24;;;;;;;;;;;9.70;90.00;;;;;;5040905;28;20387;-81
2021/12/15 09:41:51;;;;;;;;;;;9.70;90.20;;;;;;5057960;28;20387;-80
2021/12/15 09:44:20;;;;;;;;;;;9.70;90.30;;;;;;5053804;28;19956;-81
2021/12/15 09:57:46;;;;;;;;;;;9.80;90.20;;;;;;5059298;28;19939;-80
2021/12/15 10:03:02;;;;;;;;;;;9.80;90.10;;;;;;5058626;28;20345;-80
2021/12/15 10:05:49;;;;;;;;;;;9.80;89.80;;;;;;5064823;28;19917;-81
2021/12/15 10:19:30;;;;;;;;;;;10.00;89.60;;;;;;5043864;28;19924;-80
2021/12/15 10:22:18;;;;;;;;;;;9.90;89.40;;;;;;5045650;28;19912;-79
2021/12/15 10:24:49;;;;;;;;;;;10.00;89.40;;;;;;5035109;28;20304;-80
2021/12/15 10:27:30;;;;;;;;;;;9.90;89.70;;;;;;5060356;28;19913;-79
2021/12/15 10:30:06;;;;;;;;;;;10.10;89.40;;;;;;5049145;28;20253;-80
2021/12/15 10:32:32;;;;;;;;;;;10.00;89.30;;;;;;5048960;28;19984;-80
2021/12/15 10:34:59;;;;;;;;;;;10.00;89.20;;;;;;5049777;28;19924;-80
2021/12/15 10:37:25;;;;;;;;;;;10.10;89.10;;;;;;5043467;28;19953;-80
2021/12/15 10:40:09;;;;;;;;;;;10.00;89.00;;;;;;5047019;28;19912;-80
2021/12/15 10:42:34;;;;;;;;;;;10.00;89.00;;;;;;5038110;28;20674;-80
2021/12/15 10:45:04;;;;;;;;;;;10.00;89.10;;;;;;5044534;28;19960;-80
2021/12/15 10:47:30;;;;;;;;;;;10.00;89.20;;;;;;5044039;28;20003;-79
2021/12/15 10:49:55;;;;;;;;;;;9.90;89.10;;;;;;5047687;28;20298;-79
2021/12/15 10:52:20;;;;;;;;;;;9.90;89.30;;;;;;5049317;28;19921;-80
2021/12/15 10:54:49;;;;;;;;;;;9.90;89.20;;;;;;5045218;28;19986;-80
2021/12/15 10:57:17;;;;;;;;;;;10.00;89.40;;;;;;5042357;28;19959;-80
2021/12/15 10:59:44;;;;;;;;;;;9.90;89.20;;;;;;5054403;28;20337;-80
2021/12/15 11:02:16;;;;;;;;;;;10.00;89.20;;;;;;5050124;28;19909;-79
2021/12/15 11:04:41;;;;;;;;;;;10.00;89.20;;;;;;5052768;28;19917;-80
2021/12/15 11:07:26;;;;;;;;;;;10.00;89.30;;;;;;5072672;28;20049;-80
2021/12/15 11:09:55;;;;;;;;;;;9.90;89.70;;;;;;5046955;28;19925;-86
2021/12/15 11:12:32;;;;;;;;;;;9.90;89.40;;;;;;5050484;28;20018;-86
2021/12/15 11:15:15;;;;;;;;;;;9.90;89.70;;;;;;5045830;28;19956;-82
2021/12/15 11:17:42;;;;;;;;;;;9.90;89.70;;;;;;5050055;28;19936;-84
2021/12/15 11:20:13;;;;;;;;;;;9.90;89.80;;;;;;5049692;28;19912;-82
2021/12/15 11:22:47;;;;;;;;;;;9.90;89.80;;;;;;5053234;28;19913;-81
2021/12/15 11:25:28;;;;;;;;;;;9.90;89.80;;;;;;5053614;28;19928;-82
2021/12/15 11:28:08;;;;;;;;;;;9.90;90.00;;;;;;5067860;28;20113;-83
2021/12/15 11:30:37;;;;;;;;;;;9.90;89.70;;;;;;5062841;28;19901;-83
2021/12/15 11:33:05;;;;;;;;;;;9.90;89.80;;;;;;5063456;28;20118;-83
2021/12/15 11:35:33;;;;;;;;;;;9.90;89.80;;;;;;5075820;28;19913;-82
2021/12/15 11:38:03;;;;;;;;;;;9.90;89.90;;;;;;5059152;28;19928;-82
2021/12/15 11:40:32;;;;;;;;;;;10.00;89.70;;;;;;5054457;28;19913;-83
2021/12/15 11:42:58;;;;;;;;;;;9.90;89.80;;;;;;5055868;28;19916;-84
2021/12/15 11:45:24;;;;;;;;;;;10.00;89.70;;;;;;5066667;28;19924;-85
2021/12/15 11:47:50;;;;;;;;;;;10.00;89.50;;;;;;5062975;28;19906;-85
2021/12/15 11:50:18;;;;;;;;;;;10.00;89.70;;;;;;5058572;28;19908;-80
2021/12/15 11:52:45;;;;;;;;;;;10.00;89.70;;;;;;5053175;28;19947;-81
2021/12/15 11:55:25;;;;;;;;;;;9.90;89.60;;;;;;5054799;28;19913;-83
2021/12/15 11:57:51;;;;;;;;;;;9.90;89.90;;;;;;5045019;28;19952;-85
2021/12/15 12:00:18;;;;;;;;;;;10.00;89.70;;;;;;5055191;28;19928;-80
2021/12/15 12:02:47;;;;;;;;;;;9.90;89.90;;;;;;5056298;28;20007;-83
2021/12/15 12:05:14;;;;;;;;;;;10.00;89.60;;;;;;5051037;28;19913;-84
2021/12/15 12:07:43;;;;;;;;;;;9.90;89.70;;;;;;5048536;28;19928;-81
2021/12/15 12:10:20;;;;;;;;;;;9.90;89.80;;;;;;5046588;28;19917;-82
2021/12/15 12:12:51;;;;;;;;;;;9.90;89.90;;;;;;5050518;28;19921;-80
2021/12/15 12:15:18;;;;;;;;;;;9.90;89.80;;;;;;5058656;28;19925;-80
2021/12/15 12:17:45;;;;;;;;;;;9.90;89.90;;;;;;5060588;28;19916;-80
2021/12/15 12:20:15;;;;;;;;;;;10.00;90.00;;;;;;5059912;28;19923;-81
2021/12/15 12:22:43;;;;;;;;;;;10.00;89.90;;;;;;5050287;28;19917;-80
2021/12/15 12:25:29;;;;;;;;;;;10.00;89.70;;;;;;5061795;28;19932;-81
2021/12/15 12:27:56;;;;;;;;;;;10.00;89.50;;;;;;5058167;28;19912;-80
2021/12/15 12:30:23;;;;;;;;;;;10.00;89.80;;;;;;5070721;28;19952;-82
2021/12/15 12:32:50;;;;;;;;;;;10.00;89.90;;;;;;5077485;28;19908;-80
2021/12/15 12:35:17;;;;;;;;;;;10.00;89.90;;;;;;5056845;28;19912;-81
2021/12/15 12:37:42;;;;;;;;;;;10.00;89.50;;;;;;5059601;28;20329;-81
2021/12/15 12:40:20;;;;;;;;;;;10.10;89.60;;;;;;5060117;28;19936;-81
2021/12/15 12:42:45;;;;;;;;;;;10.00;89.90;;;;;;5052800;28;20427;-81
2021/12/15 12:45:11;;;;;;;;;;;10.10;89.50;;;;;;5058803;28;20022;-80
2021/12/15 12:47:43;;;;;;;;;;;10.10;89.40;;;;;;5061142;28;19999;-80
2021/12/15 13:01:08;;;;;;;;;;;10.30;88.90;;;;;;5047837;28;19963;-80
2021/12/15 13:03:38;;;;;;;;;;;10.20;88.90;;;;;;5062039;28;20332;-81
2021/12/15 13:06:06;;;;;;;;;;;10.20;88.90;;;;;;5062881;28;20549;-81
2021/12/15 13:08:38;;;;;;;;;;;10.30;88.80;;;;;;5076330;22;20307;-85
2021/12/15 13:11:14;;;;;;;;;;;10.20;89.20;;;;;;5032708;28;19935;-86
2021/12/15 13:13:55;;;;;;;;;;;10.20;89.10;;;;;;5032358;28;19944;-87
2021/12/15 13:16:28;;;;;;;;;;;10.20;88.80;;;;;;5042704;28;19913;-88
2021/12/15 13:19:14;;;;;;;;;;;10.30;89.00;;;;;;5024007;28;19913;-87
2021/12/15 13:21:57;;;;;;;;;;;10.20;89.00;;;;;;5004228;28;19913;-87
2021/12/15 13:30:49;;;;;;;;;;;10.20;88.80;;;;;;5032750;28;19981;-87
2021/12/15 13:33:18;;;;;;;;;;;10.20;89.20;;;;;;5025509;28;19909;-88
2021/12/15 13:35:52;;;;;;;;;;;10.30;88.90;;;;;;5009086;28;19925;-86
2021/12/15 13:38:40;;;;;;;;;;;10.30;88.80;;;;;;4998651;28;19917;-87
2021/12/15 13:41:20;;;;;;;;;;;10.20;88.80;;;;;;5003687;28;19913;-88
2021/12/15 13:43:52;;;;;;;;;;;10.20;89.00;;;;;;5007860;28;20441;-88
2021/12/15 13:46:23;;;;;;;;;;;10.30;88.80;;;;;;5016366;28;20073;-87
2021/12/15 13:48:55;;;;;;;;;;;10.20;88.90;;;;;;5013283;28;19994;-88
2021/12/15 13:51:56;;;;;;;;;;;10.10;88.90;;;;;;5023295;28;19912;-88
2021/12/15 13:54:21;;;;;;;;;;;10.20;89.00;;;;;;4957958;28;20022;-88
2021/12/15 13:56:52;;;;;;;;;;;10.20;89.00;;;;;;5022398;28;20039;-88
2021/12/15 13:59:30;;;;;;;;;;;10.20;88.90;;;;;;5013901;28;19913;-88
2021/12/15 14:02:14;;;;;;;;;;;10.10;89.00;;;;;;4995576;28;19910;-88
2021/12/15 14:04:47;;;;;;;;;;;10.20;88.90;;;;;;4998911;28;20349;-88
2021/12/15 14:07:28;;;;;;;;;;;10.20;88.80;;;;;;5007539;28;19917;-87
2021/12/15 14:10:18;;;;;;;;;;;10.30;88.80;;;;;;5031896;28;20385;-88
2021/12/15 14:12:49;;;;;;;;;;;10.30;88.70;;;;;;4974325;28;20410;-89
2021/12/15 14:15:26;;;;;;;;;;;10.30;88.60;;;;;;5015535;28;19913;-88
2021/12/15 14:17:59;;;;;;;;;;;10.40;88.40;;;;;;5006881;28;19909;-88
2021/12/15 14:20:26;;;;;;;;;;;10.20;88.50;;;;;;5010104;28;19914;-88
2021/12/15 14:22:55;;;;;;;;;;;10.20;88.50;;;;;;4997629;28;19917;-88
2021/12/15 14:25:20;;;;;;;;;;;10.30;88.40;;;;;;4999457;28;20299;-88
2021/12/15 14:27:46;;;;;;;;;;;10.30;88.50;;;;;;5013978;28;19909;-87
2021/12/15 14:30:12;;;;;;;;;;;10.10;88.70;;;;;;5023014;28;19940;-87
2021/12/15 14:32:37;;;;;;;;;;;10.20;88.90;;;;;;5036102;28;19908;-87
2021/12/15 14:35:03;;;;;;;;;;;10.20;88.90;;;;;;5019421;28;19920;-85
2021/12/15 14:37:29;;;;;;;;;;;10.20;88.70;;;;;;5014820;28;19925;-83
2021/12/15 14:39:55;;;;;;;;;;;10.10;88.60;;;;;;5029639;28;19922;-85
2021/12/15 14:42:23;;;;;;;;;;;10.20;88.60;;;;;;5030258;28;19965;-84
2021/12/15 14:44:50;;;;;;;;;;;10.20;88.60;;;;;;5012470;28;19917;-85
2021/12/15 14:47:18;;;;;;;;;;;10.10;88.50;;;;;;5012956;28;20279;-85
2021/12/15 14:49:51;;;;;;;;;;;10.20;88.60;;;;;;5014808;28;19917;-82
2021/12/15 14:52:21;;;;;;;;;;;10.20;88.40;;;;;;5028917;28;20043;-83
2021/12/15 14:54:48;;;;;;;;;;;10.20;88.40;;;;;;5019017;28;19970;-85
2021/12/15 14:57:18;;;;;;;;;;;10.20;88.50;;;;;;5021076;28;19945;-85
2021/12/15 14:59:45;;;;;;;;;;;10.30;88.20;;;;;;5029648;28;19921;-84
2021/12/15 15:02:12;;;;;;;;;;;10.20;88.40;;;;;;5020511;28;19920;-86
2021/12/15 15:04:40;;;;;;;;;;;10.20;88.60;;;;;;5024042;28;19931;-83
2021/12/15 15:07:07;;;;;;;;;;;10.20;88.40;;;;;;5032502;28;19909;-85
2021/12/15 15:09:37;;;;;;;;;;;10.20;88.60;;;;;;5049092;28;20056;-84
2021/12/15 15:12:03;;;;;;;;;;;10.20;88.30;;;;;;5035037;28;19918;-83
2021/12/15 15:14:41;;;;;;;;;;;10.20;88.40;;;;;;5031528;28;19970;-84
2021/12/15 15:17:47;;;;;;;;;;;10.10;88.40;;;;;;5019327;28;19920;-86
2021/12/15 15:20:16;;;;;;;;;;;10.00;88.70;;;;;;5000728;28;19956;-84
2021/12/15 15:22:42;;;;;;;;;;;10.00;88.80;;;;;;5000655;28;19993;-83
2021/12/15 15:25:13;;;;;;;;;;;10.00;88.80;;;;;;5010898;28;19913;-84
2021/12/15 15:27:40;;;;;;;;;;;10.00;88.60;;;;;;5006104;28;19972;-84
2021/12/15 15:30:07;;;;;;;;;;;10.00;88.90;;;;;;5016227;28;20329;-83
2021/12/15 15:32:34;;;;;;;;;;;9.90;89.00;;;;;;5023915;28;19914;-84
2021/12/15 15:35:09;;;;;;;;;;;9.90;89.10;;;;;;5022144;28;19917;-82
2021/12/15 15:37:35;;;;;;;;;;;9.90;88.80;;;;;;5022492;28;19943;-83
2021/12/15 15:40:13;;;;;;;;;;;10.00;88.70;;;;;;5042712;28;19940;-83
2021/12/15 15:42:39;;;;;;;;;;;10.00;88.70;;;;;;5033687;28;20248;-80
2021/12/15 15:45:05;;;;;;;;;;;10.00;88.80;;;;;;5016516;28;19920;-85
2021/12/15 15:47:31;;;;;;;;;;;10.10;88.40;;;;;;5003531;28;19917;-89
2021/12/15 15:49:58;;;;;;;;;;;10.10;88.40;;;;;;5014561;28;19905;-88
2021/12/15 15:52:24;;;;;;;;;;;10.00;88.10;;;;;;5014255;28;19917;-87
2021/12/15 15:54:50;;;;;;;;;;;10.10;88.00;;;;;;5025801;28;20312;-86
2021/12/15 15:57:16;;;;;;;;;;;10.10;88.00;;;;;;5025407;28;19927;-86